sensor_id;sensor_type;location;lat;lon;timestamp;pressure;altitude;pressure_sealevel;temperature;humidity
76164;BME280;64897;50.816;4.422;2023-05-03T00:00:54;101929.41;;;8.46;61.60
76164;BME280;64897;50.816;4.422;2023-05-03T00:03:45;101927.06;;;8.38;61.70
76164;BME280;64897;50.816;4.422;2023-05-03T00:06:33;101928.13;;;8.34;61.73
76164;BME280;64897;50.816;4.422;2023-05-03T00:09:20;101915.88;;;8.36;61.88
76164;BME280;64897;50.816;4.422;2023-05-03T00:12:06;101919.59;;;8.31;62.40
76164;BME280;64897;50.816;4.422;2023-05-03T00:14:54;101921.34;;;8.30;62.16
76164;BME280;64897;50.816;4.422;2023-05-03T00:17:41;101917.94;;;8.28;62.31
76164;BME280;64897;50.816;4.422;2023-05-03T00:20:28;101924.94;;;8.26;62.72
76164;BME280;64897;50.816;4.422;2023-05-03T00:23:15;101921.78;;;8.18;62.85
76164;BME280;64897;50.816;4.422;2023-05-03T00:26:02;101917.41;;;8.19;62.74
76164;BME280;64897;50.816;4.422;2023-05-03T00:28:49;101915.75;;;8.18;63.19
76164;BME280;64897;50.816;4.422;2023-05-03T00:31:37;101918.38;;;8.16;62.83
76164;BME280;64897;50.816;4.422;2023-05-03T00:34:24;101915.78;;;8.16;63.12
76164;BME280;64897;50.816;4.422;2023-05-03T00:37:11;101920.38;;;8.10;62.84
76164;BME280;64897;50.816;4.422;2023-05-03T00:39:58;101923.84;;;8.10;63.11
76164;BME280;64897;50.816;4.422;2023-05-03T00:42:46;101922.38;;;8.03;63.13
76164;BME280;64897;50.816;4.422;2023-05-03T00:45:33;101918.97;;;8.01;63.52
76164;BME280;64897;50.816;4.422;2023-05-03T00:48:22;101918.44;;;7.93;64.08
76164;BME280;64897;50.816;4.422;2023-05-03T00:51:13;101919.06;;;7.99;63.86
76164;BME280;64897;50.816;4.422;2023-05-03T00:54:01;101915.81;;;7.93;64.27
76164;BME280;64897;50.816;4.422;2023-05-03T00:56:48;101910.84;;;7.87;64.37
76164;BME280;64897;50.816;4.422;2023-05-03T00:59:36;101899.53;;;7.88;64.40
76164;BME280;64897;50.816;4.422;2023-05-03T01:02:23;101898.19;;;7.78;64.46
76164;BME280;64897;50.816;4.422;2023-05-03T01:05:11;101907.47;;;7.85;64.96
76164;BME280;64897;50.816;4.422;2023-05-03T01:08:05;101909.41;;;7.80;64.72
76164;BME280;64897;50.816;4.422;2023-05-03T01:11:00;101898.38;;;7.73;65.02
76164;BME280;64897;50.816;4.422;2023-05-03T01:13:54;101906.28;;;7.70;65.19
76164;BME280;64897;50.816;4.422;2023-05-03T01:16:46;101904.53;;;7.71;65.27
76164;BME280;64897;50.816;4.422;2023-05-03T01:19:41;101906.47;;;7.66;65.52
76164;BME280;64897;50.816;4.422;2023-05-03T01:22:41;101904.09;;;7.60;65.33
76164;BME280;64897;50.816;4.422;2023-05-03T01:25:30;101908.47;;;7.58;66.09
76164;BME280;64897;50.816;4.422;2023-05-03T01:28:17;101914.84;;;7.51;66.60
76164;BME280;64897;50.816;4.422;2023-05-03T01:31:05;101910.31;;;7.56;65.90
76164;BME280;64897;50.816;4.422;2023-05-03T01:34:06;101905.09;;;7.56;66.20
76164;BME280;64897;50.816;4.422;2023-05-03T01:36:59;101903.44;;;7.55;65.73
76164;BME280;64897;50.816;4.422;2023-05-03T01:39:50;101904.47;;;7.49;66.33
76164;BME280;64897;50.816;4.422;2023-05-03T01:42:41;101900.13;;;7.50;66.77
76164;BME280;64897;50.816;4.422;2023-05-03T01:45:28;101897.75;;;7.43;66.58
76164;BME280;64897;50.816;4.422;2023-05-03T01:48:16;101896.06;;;7.42;66.91
76164;BME280;64897;50.816;4.422;2023-05-03T01:51:04;101893.34;;;7.45;66.64
76164;BME280;64897;50.816;4.422;2023-05-03T01:53:51;101883.19;;;7.39;66.49
76164;BME280;64897;50.816;4.422;2023-05-03T01:56:38;101886.88;;;7.32;66.99
76164;BME280;64897;50.816;4.422;2023-05-03T01:59:27;101883.63;;;7.27;67.07
76164;BME280;64897;50.816;4.422;2023-05-03T02:02:13;101887.22;;;7.23;67.37
76164;BME280;64897;50.816;4.422;2023-05-03T02:05:01;101877.84;;;7.19;67.56
76164;BME280;64897;50.816;4.422;2023-05-03T02:07:49;101878.84;;;7.15;68.01
76164;BME280;64897;50.816;4.422;2023-05-03T02:10:35;101868.66;;;7.09;68.07
76164;BME280;64897;50.816;4.422;2023-05-03T02:13:22;101871.38;;;7.06;68.37
76164;BME280;64897;50.816;4.422;2023-05-03T02:16:10;101869.03;;;7.00;68.88
76164;BME280;64897;50.816;4.422;2023-05-03T02:18:57;101863.94;;;6.97;68.82
76164;BME280;64897;50.816;4.422;2023-05-03T02:21:44;101861.47;;;6.93;68.83
76164;BME280;64897;50.816;4.422;2023-05-03T02:24:31;101861.66;;;6.88;68.70
76164;BME280;64897;50.816;4.422;2023-05-03T02:27:20;101861.69;;;6.86;69.12
76164;BME280;64897;50.816;4.422;2023-05-03T02:30:08;101856.66;;;6.82;68.96
76164;BME280;64897;50.816;4.422;2023-05-03T02:33:01;101867.84;;;6.84;69.39
76164;BME280;64897;50.816;4.422;2023-05-03T02:35:49;101880.88;;;6.82;68.96
76164;BME280;64897;50.816;4.422;2023-05-03T02:38:36;101881.84;;;6.80;69.32
76164;BME280;64897;50.816;4.422;2023-05-03T02:41:23;101886.91;;;6.83;69.11
76164;BME280;64897;50.816;4.422;2023-05-03T02:44:10;101879.47;;;6.74;69.64
76164;BME280;64897;50.816;4.422;2023-05-03T02:46:57;101879.50;;;6.72;69.42
76164;BME280;64897;50.816;4.422;2023-05-03T02:49:47;101879.47;;;6.74;69.29
76164;BME280;64897;50.816;4.422;2023-05-03T02:52:35;101879.69;;;6.66;69.71
76164;BME280;64897;50.816;4.422;2023-05-03T02:55:22;101883.03;;;6.70;69.94
76164;BME280;64897;50.816;4.422;2023-05-03T02:58:09;101885.06;;;6.62;70.48
76164;BME280;64897;50.816;4.422;2023-05-03T03:00:56;101873.66;;;6.66;70.10
76164;BME280;64897;50.816;4.422;2023-05-03T03:03:47;101860.66;;;6.66;70.08
76164;BME280;64897;50.816;4.422;2023-05-03T03:06:36;101851.94;;;6.68;70.07
76164;BME280;64897;50.816;4.422;2023-05-03T03:09:23;101851.09;;;6.68;70.38
76164;BME280;64897;50.816;4.422;2023-05-03T03:12:10;101850.44;;;6.61;70.66
76164;BME280;64897;50.816;4.422;2023-05-03T03:14:57;101846.50;;;6.50;71.44
76164;BME280;64897;50.816;4.422;2023-05-03T03:17:45;101854.41;;;6.47;71.24
76164;BME280;64897;50.816;4.422;2023-05-03T03:20:33;101853.91;;;6.36;71.85
76164;BME280;64897;50.816;4.422;2023-05-03T03:23:23;101861.78;;;6.32;72.34
76164;BME280;64897;50.816;4.422;2023-05-03T03:26:10;101846.97;;;6.36;72.32
76164;BME280;64897;50.816;4.422;2023-05-03T03:28:57;101847.53;;;6.19;73.15
76164;BME280;64897;50.816;4.422;2023-05-03T03:31:44;101854.09;;;6.29;72.67
76164;BME280;64897;50.816;4.422;2023-05-03T03:34:31;101860.34;;;6.24;72.64
76164;BME280;64897;50.816;4.422;2023-05-03T03:37:19;101859.75;;;6.42;71.59
76164;BME280;64897;50.816;4.422;2023-05-03T03:40:10;101866.38;;;6.51;70.95
76164;BME280;64897;50.816;4.422;2023-05-03T03:42:58;101868.06;;;6.52;70.49
76164;BME280;64897;50.816;4.422;2023-05-03T03:45:45;101871.50;;;6.52;70.92
76164;BME280;64897;50.816;4.422;2023-05-03T03:48:34;101881.16;;;6.49;71.05
76164;BME280;64897;50.816;4.422;2023-05-03T03:51:21;101881.16;;;6.49;71.06
76164;BME280;64897;50.816;4.422;2023-05-03T03:54:10;101879.47;;;6.48;70.87
76164;BME280;64897;50.816;4.422;2023-05-03T03:57:03;101880.63;;;6.39;71.51
76164;BME280;64897;50.816;4.422;2023-05-03T03:59:52;101889.28;;;6.38;71.60
76164;BME280;64897;50.816;4.422;2023-05-03T04:02:39;101895.94;;;6.47;71.35
76164;BME280;64897;50.816;4.422;2023-05-03T04:05:32;101904.03;;;6.38;71.62
76164;BME280;64897;50.816;4.422;2023-05-03T04:08:19;101907.44;;;6.40;72.03
76164;BME280;64897;50.816;4.422;2023-05-03T04:11:09;101900.44;;;6.42;71.27
76164;BME280;64897;50.816;4.422;2023-05-03T04:14:03;101903.22;;;6.36;71.84
76164;BME280;64897;50.816;4.422;2023-05-03T04:16:51;101911.97;;;6.33;72.30
76164;BME280;64897;50.816;4.422;2023-05-03T04:19:38;101912.16;;;6.27;72.27
76164;BME280;64897;50.816;4.422;2023-05-03T04:22:26;101911.19;;;6.29;72.80
76164;BME280;64897;50.816;4.422;2023-05-03T04:25:14;101904.53;;;6.22;73.06
76164;BME280;64897;50.816;4.422;2023-05-03T04:28:05;101911.31;;;6.26;72.53
76164;BME280;64897;50.816;4.422;2023-05-03T04:30:57;101912.94;;;6.29;72.49
76164;BME280;64897;50.816;4.422;2023-05-03T04:33:46;101907.06;;;6.24;72.32
76164;BME280;64897;50.816;4.422;2023-05-03T04:36:33;101905.72;;;6.39;71.91
76164;BME280;64897;50.816;4.422;2023-05-03T04:39:23;101906.97;;;6.27;71.99
76164;BME280;64897;50.816;4.422;2023-05-03T04:42:11;101907.06;;;6.24;72.07
76164;BME280;64897;50.816;4.422;2023-05-03T04:45:00;101904.63;;;6.19;72.37
76164;BME280;64897;50.816;4.422;2023-05-03T04:47:50;101915.72;;;6.23;71.87
76164;BME280;64897;50.816;4.422;2023-05-03T04:50:37;101912.34;;;6.21;72.63
76164;BME280;64897;50.816;4.422;2023-05-03T04:53:27;101920.19;;;6.19;72.37
76164;BME280;64897;50.816;4.422;2023-05-03T04:56:23;101920.13;;;6.21;72.57
76164;BME280;64897;50.816;4.422;2023-05-03T04:59:13;101919.28;;;6.20;72.64
76164;BME280;64897;50.816;4.422;2023-05-03T05:02:00;101917.63;;;6.18;72.60
76164;BME280;64897;50.816;4.422;2023-05-03T05:04:48;101915.09;;;6.16;72.82
76164;BME280;64897;50.816;4.422;2023-05-03T05:07:35;101919.34;;;6.19;72.28
76164;BME280;64897;50.816;4.422;2023-05-03T05:10:22;101918.41;;;6.48;71.14
76164;BME280;64897;50.816;4.422;2023-05-03T05:13:09;101916.81;;;6.70;70.53
76164;BME280;64897;50.816;4.422;2023-05-03T05:15:57;101916.94;;;7.16;68.66
76164;BME280;64897;50.816;4.422;2023-05-03T05:18:44;101920.09;;;7.26;67.85
76164;BME280;64897;50.816;4.422;2023-05-03T05:21:33;101924.91;;;7.83;65.10
76164;BME280;64897;50.816;4.422;2023-05-03T05:24:21;101909.81;;;8.36;63.15
76164;BME280;64897;50.816;4.422;2023-05-03T05:27:09;101920.97;;;8.39;62.79
76164;BME280;64897;50.816;4.422;2023-05-03T05:29:56;101919.72;;;8.70;61.86
76164;BME280;64897;50.816;4.422;2023-05-03T05:32:43;101925.75;;;8.92;61.19
76164;BME280;64897;50.816;4.422;2023-05-03T05:35:32;101927.41;;;8.93;61.19
76164;BME280;64897;50.816;4.422;2023-05-03T05:38:21;101934.47;;;9.31;59.30
76164;BME280;64897;50.816;4.422;2023-05-03T05:41:10;101935.78;;;8.59;61.69
76164;BME280;64897;50.816;4.422;2023-05-03T05:43:59;101935.88;;;8.57;62.57
76164;BME280;64897;50.816;4.422;2023-05-03T05:46:48;101942.03;;;8.33;63.72
76164;BME280;64897;50.816;4.422;2023-05-03T05:49:36;101942.66;;;8.40;63.00
76164;BME280;64897;50.816;4.422;2023-05-03T05:52:25;101937.44;;;8.40;63.42
76164;BME280;64897;50.816;4.422;2023-05-03T05:55:14;101942.38;;;8.68;61.96
76164;BME280;64897;50.816;4.422;2023-05-03T05:58:03;101941.50;;;8.89;61.94
76164;BME280;64897;50.816;4.422;2023-05-03T06:00:59;101935.97;;;9.16;59.93
76164;BME280;64897;50.816;4.422;2023-05-03T06:03:50;101936.59;;;9.42;59.56
76164;BME280;64897;50.816;4.422;2023-05-03T06:06:38;101938.59;;;9.55;59.23
76164;BME280;64897;50.816;4.422;2023-05-03T06:09:25;101935.03;;;9.95;56.94
76164;BME280;64897;50.816;4.422;2023-05-03T06:12:18;101929.75;;;10.15;57.17
76164;BME280;64897;50.816;4.422;2023-05-03T06:15:07;101926.53;;;10.80;54.61
76164;BME280;64897;50.816;4.422;2023-05-03T06:17:56;101916.94;;;11.96;50.69
76164;BME280;64897;50.816;4.422;2023-05-03T06:20:43;101915.66;;;12.19;49.88
76164;BME280;64897;50.816;4.422;2023-05-03T06:23:30;101912.09;;;12.95;48.19
76164;BME280;64897;50.816;4.422;2023-05-03T06:26:19;101913.31;;;13.48;45.95
76164;BME280;64897;50.816;4.422;2023-05-03T06:29:08;101901.56;;;14.08;44.45
76164;BME280;64897;50.816;4.422;2023-05-03T06:31:55;101906.78;;;14.22;43.49
76164;BME280;64897;50.816;4.422;2023-05-03T06:34:42;101904.53;;;16.43;38.84
76164;BME280;64897;50.816;4.422;2023-05-03T06:37:31;101900.81;;;15.12;40.94
76164;BME280;64897;50.816;4.422;2023-05-03T06:40:18;101904.47;;;13.35;45.48
76164;BME280;64897;50.816;4.422;2023-05-03T06:43:07;101904.75;;;12.27;48.47
76164;BME280;64897;50.816;4.422;2023-05-03T06:45:59;101905.16;;;12.35;49.21
76164;BME280;64897;50.816;4.422;2023-05-03T06:48:46;101904.47;;;13.49;46.05
76164;BME280;64897;50.816;4.422;2023-05-03T06:51:33;101893.53;;;15.40;41.35
76164;BME280;64897;50.816;4.422;2023-05-03T06:54:20;101890.75;;;13.72;45.03
76164;BME280;64897;50.816;4.422;2023-05-03T06:57:07;101893.16;;;11.99;49.17
76164;BME280;64897;50.816;4.422;2023-05-03T06:59:55;101895.78;;;12.31;49.65
76164;BME280;64897;50.816;4.422;2023-05-03T07:02:43;101884.38;;;12.00;50.69
76164;BME280;64897;50.816;4.422;2023-05-03T07:05:30;101883.88;;;11.94;51.35
76164;BME280;64897;50.816;4.422;2023-05-03T07:08:17;101881.53;;;11.89;51.12
76164;BME280;64897;50.816;4.422;2023-05-03T07:11:04;101882.03;;;11.80;51.68
76164;BME280;64897;50.816;4.422;2023-05-03T07:13:52;101876.44;;;11.86;51.19
76164;BME280;64897;50.816;4.422;2023-05-03T07:16:39;101878.28;;;12.16;51.08
76164;BME280;64897;50.816;4.422;2023-05-03T07:19:27;101878.28;;;12.16;50.46
76164;BME280;64897;50.816;4.422;2023-05-03T07:22:15;101874.06;;;11.97;50.82
76164;BME280;64897;50.816;4.422;2023-05-03T07:25:02;101864.97;;;12.05;50.68
76164;BME280;64897;50.816;4.422;2023-05-03T07:27:49;101864.00;;;12.06;50.33
76164;BME280;64897;50.816;4.422;2023-05-03T07:30:37;101856.41;;;12.01;50.46
76164;BME280;64897;50.816;4.422;2023-05-03T07:33:24;101862.56;;;12.16;50.85
76164;BME280;64897;50.816;4.422;2023-05-03T07:36:12;101853.06;;;12.29;51.14
76164;BME280;64897;50.816;4.422;2023-05-03T07:39:00;101857.44;;;12.44;49.38
76164;BME280;64897;50.816;4.422;2023-05-03T07:41:46;101863.50;;;12.74;49.13
76164;BME280;64897;50.816;4.422;2023-05-03T07:44:33;101870.16;;;13.24;48.55
76164;BME280;64897;50.816;4.422;2023-05-03T07:47:20;101863.59;;;13.31;48.03
76164;BME280;64897;50.816;4.422;2023-05-03T07:50:07;101854.03;;;13.30;47.49
76164;BME280;64897;50.816;4.422;2023-05-03T07:52:56;101857.97;;;13.08;47.62
76164;BME280;64897;50.816;4.422;2023-05-03T07:55:44;101862.69;;;12.44;49.27
76164;BME280;64897;50.816;4.422;2023-05-03T07:58:31;101858.00;;;12.49;49.15
76164;BME280;64897;50.816;4.422;2023-05-03T08:01:19;101861.03;;;12.57;49.23
76164;BME280;64897;50.816;4.422;2023-05-03T08:04:06;101863.03;;;12.38;49.34
76164;BME280;64897;50.816;4.422;2023-05-03T08:06:53;101858.28;;;12.44;50.12
76164;BME280;64897;50.816;4.422;2023-05-03T08:09:42;101857.09;;;12.50;49.84
76164;BME280;64897;50.816;4.422;2023-05-03T08:12:28;101859.69;;;12.80;49.53
76164;BME280;64897;50.816;4.422;2023-05-03T08:15:15;101859.28;;;12.72;49.48
76164;BME280;64897;50.816;4.422;2023-05-03T08:18:03;101865.66;;;12.68;48.42
76164;BME280;64897;50.816;4.422;2023-05-03T08:20:50;101856.72;;;12.56;49.43
76164;BME280;64897;50.816;4.422;2023-05-03T09:20:50;101833.75;;;20.17;30.29
76164;BME280;64897;50.816;4.422;2023-05-03T09:23:39;101837.69;;;18.94;30.68
76164;BME280;64897;50.816;4.422;2023-05-03T09:26:28;101815.81;;;22.31;26.86
76164;BME280;64897;50.816;4.422;2023-05-03T09:29:27;101819.06;;;22.42;26.24
76164;BME280;64897;50.816;4.422;2023-05-03T09:32:14;101816.72;;;24.32;24.04
76164;BME280;64897;50.816;4.422;2023-05-03T09:35:09;101841.09;;;24.70;22.63
76164;BME280;64897;50.816;4.422;2023-05-03T09:37:58;101857.94;;;25.58;21.25
76164;BME280;64897;50.816;4.422;2023-05-03T09:40:46;101842.19;;;27.64;19.63
76164;BME280;64897;50.816;4.422;2023-05-03T09:43:34;101843.13;;;26.98;19.90
76164;BME280;64897;50.816;4.422;2023-05-03T09:46:21;101826.34;;;29.16;18.02
76164;BME280;64897;50.816;4.422;2023-05-03T09:49:10;101832.47;;;28.20;18.26
76164;BME280;64897;50.816;4.422;2023-05-03T09:51:58;101820.28;;;30.15;16.77
76164;BME280;64897;50.816;4.422;2023-05-03T09:54:48;101822.75;;;29.84;16.77
76164;BME280;64897;50.816;4.422;2023-05-03T09:57:36;101822.00;;;29.56;17.08
76164;BME280;64897;50.816;4.422;2023-05-03T10:00:24;101822.81;;;30.43;15.54
76164;BME280;64897;50.816;4.422;2023-05-03T10:03:18;101815.97;;;28.78;16.98
76164;BME280;64897;50.816;4.422;2023-05-03T10:06:18;101820.13;;;27.90;18.26
76164;BME280;64897;50.816;4.422;2023-05-03T10:09:13;101804.84;;;29.76;17.05
76164;BME280;64897;50.816;4.422;2023-05-03T10:12:07;101805.16;;;28.65;18.21
76164;BME280;64897;50.816;4.422;2023-05-03T10:14:56;101813.69;;;27.34;19.12
76164;BME280;64897;50.816;4.422;2023-05-03T10:17:46;101805.91;;;28.10;18.48
76164;BME280;64897;50.816;4.422;2023-05-03T10:20:40;101795.41;;;30.59;16.28
76164;BME280;64897;50.816;4.422;2023-05-03T10:23:29;101779.81;;;32.93;13.66
76164;BME280;64897;50.816;4.422;2023-05-03T10:26:16;101791.56;;;29.68;15.95
76164;BME280;64897;50.816;4.422;2023-05-03T10:29:05;101782.50;;;30.28;15.64
76164;BME280;64897;50.816;4.422;2023-05-03T10:31:52;101775.41;;;30.93;15.40
76164;BME280;64897;50.816;4.422;2023-05-03T10:34:40;101779.69;;;28.68;17.28
76164;BME280;64897;50.816;4.422;2023-05-03T10:37:27;101777.53;;;28.29;17.54
76164;BME280;64897;50.816;4.422;2023-05-03T10:40:16;101786.63;;;27.50;18.27
76164;BME280;64897;50.816;4.422;2023-05-03T10:43:03;101776.69;;;30.05;16.25
76164;BME280;64897;50.816;4.422;2023-05-03T10:45:51;101773.72;;;28.17;17.54
76164;BME280;64897;50.816;4.422;2023-05-03T10:48:38;101763.25;;;28.28;17.15
76164;BME280;64897;50.816;4.422;2023-05-03T10:51:33;101759.25;;;28.46;18.00
76164;BME280;64897;50.816;4.422;2023-05-03T10:54:21;101758.81;;;29.71;16.70
76164;BME280;64897;50.816;4.422;2023-05-03T10:57:09;101755.91;;;28.71;17.15
76164;BME280;64897;50.816;4.422;2023-05-03T10:59:57;101762.19;;;27.81;17.83
76164;BME280;64897;50.816;4.422;2023-05-03T11:06:27;101765.00;;;24.88;21.38
76164;BME280;64897;50.816;4.422;2023-05-03T11:09:15;101750.66;;;28.08;18.22
76164;BME280;64897;50.816;4.422;2023-05-03T11:12:06;101740.59;;;30.52;15.84
76164;BME280;64897;50.816;4.422;2023-05-03T11:14:54;101761.13;;;28.79;16.73
76164;BME280;64897;50.816;4.422;2023-05-03T11:17:42;101754.16;;;27.87;18.19
76164;BME280;64897;50.816;4.422;2023-05-03T11:20:30;101736.38;;;29.51;16.96
76164;BME280;64897;50.816;4.422;2023-05-03T11:23:18;101730.00;;;28.36;18.17
76164;BME280;64897;50.816;4.422;2023-05-03T11:26:06;101737.91;;;30.00;16.94
76164;BME280;64897;50.816;4.422;2023-05-03T11:28:53;101717.56;;;29.64;16.47
76164;BME280;64897;50.816;4.422;2023-05-03T11:31:41;101716.41;;;27.32;18.32
76164;BME280;64897;50.816;4.422;2023-05-03T11:34:28;101715.28;;;25.86;19.93
76164;BME280;64897;50.816;4.422;2023-05-03T11:37:17;101720.47;;;25.34;20.94
76164;BME280;64897;50.816;4.422;2023-05-03T11:40:05;101730.88;;;24.19;21.90
76164;BME280;64897;50.816;4.422;2023-05-03T11:42:53;101741.94;;;22.58;24.53
76164;BME280;64897;50.816;4.422;2023-05-03T11:45:41;101732.25;;;21.88;25.94
76164;BME280;64897;50.816;4.422;2023-05-03T11:48:29;101740.16;;;19.86;29.60
76164;BME280;64897;50.816;4.422;2023-05-03T11:51:21;101740.09;;;18.68;30.55
76164;BME280;64897;50.816;4.422;2023-05-03T11:54:11;101742.13;;;18.35;31.42
76164;BME280;64897;50.816;4.422;2023-05-03T11:56:58;101735.47;;;17.99;30.77
76164;BME280;64897;50.816;4.422;2023-05-03T11:59:46;101732.78;;;18.10;31.14
76164;BME280;64897;50.816;4.422;2023-05-03T12:02:35;101723.81;;;17.70;32.01
76164;BME280;64897;50.816;4.422;2023-05-03T12:05:23;101716.63;;;17.60;32.27
76164;BME280;64897;50.816;4.422;2023-05-03T12:08:10;101715.16;;;17.14;33.23
76164;BME280;64897;50.816;4.422;2023-05-03T12:11:00;101711.34;;;16.73;33.05
76164;BME280;64897;50.816;4.422;2023-05-03T12:13:55;101700.88;;;17.05;32.19
76164;BME280;64897;50.816;4.422;2023-05-03T12:16:48;101681.72;;;16.81;32.59
76164;BME280;64897;50.816;4.422;2023-05-03T12:19:35;101687.44;;;17.08;33.18
76164;BME280;64897;50.816;4.422;2023-05-03T12:22:22;101683.50;;;16.91;33.52
76164;BME280;64897;50.816;4.422;2023-05-03T12:25:11;101675.19;;;17.18;34.10
76164;BME280;64897;50.816;4.422;2023-05-03T12:28:00;101661.97;;;17.18;32.71
76164;BME280;64897;50.816;4.422;2023-05-03T12:30:48;101660.25;;;17.28;32.74
76164;BME280;64897;50.816;4.422;2023-05-03T12:33:36;101673.28;;;17.09;32.42
76164;BME280;64897;50.816;4.422;2023-05-03T12:36:23;101665.13;;;17.01;32.25
76164;BME280;64897;50.816;4.422;2023-05-03T12:39:11;101650.69;;;17.05;32.39
76164;BME280;64897;50.816;4.422;2023-05-03T12:41:58;101638.59;;;17.34;32.70
76164;BME280;64897;50.816;4.422;2023-05-03T12:44:49;101649.47;;;17.20;32.02
76164;BME280;64897;50.816;4.422;2023-05-03T12:47:36;101636.59;;;16.84;32.59
76164;BME280;64897;50.816;4.422;2023-05-03T12:50:23;101645.25;;;16.75;33.32
76164;BME280;64897;50.816;4.422;2023-05-03T12:53:10;101641.88;;;16.62;33.90
76164;BME280;64897;50.816;4.422;2023-05-03T12:55:58;101640.41;;;16.91;32.67
76164;BME280;64897;50.816;4.422;2023-05-03T12:58:45;101635.09;;;17.13;32.48
76164;BME280;64897;50.816;4.422;2023-05-03T13:01:36;101633.00;;;16.74;33.48
76164;BME280;64897;50.816;4.422;2023-05-03T13:04:23;101623.91;;;16.56;34.34
76164;BME280;64897;50.816;4.422;2023-05-03T13:07:10;101625.50;;;17.01;34.43
76164;BME280;64897;50.816;4.422;2023-05-03T13:10:01;101625.16;;;16.94;34.52
76164;BME280;64897;50.816;4.422;2023-05-03T13:12:48;101610.44;;;17.24;33.17
76164;BME280;64897;50.816;4.422;2023-05-03T13:15:36;101605.25;;;17.33;33.22
76164;BME280;64897;50.816;4.422;2023-05-03T13:18:25;101600.84;;;17.43;33.27
76164;BME280;64897;50.816;4.422;2023-05-03T13:21:12;101604.81;;;17.17;34.57
76164;BME280;64897;50.816;4.422;2023-05-03T13:24:02;101594.66;;;16.90;35.01
76164;BME280;64897;50.816;4.422;2023-05-03T13:26:49;101601.69;;;16.69;35.00
76164;BME280;64897;50.816;4.422;2023-05-03T13:29:36;101599.66;;;16.62;35.19
76164;BME280;64897;50.816;4.422;2023-05-03T13:32:24;101602.41;;;16.71;34.39
76164;BME280;64897;50.816;4.422;2023-05-03T13:35:12;101598.38;;;16.99;34.20
76164;BME280;64897;50.816;4.422;2023-05-03T13:37:59;101609.59;;;16.69;34.04
76164;BME280;64897;50.816;4.422;2023-05-03T13:40:47;101594.97;;;16.43;35.15
76164;BME280;64897;50.816;4.422;2023-05-03T13:43:34;101592.47;;;16.41;35.52
76164;BME280;64897;50.816;4.422;2023-05-03T13:46:21;101589.09;;;16.62;35.82
76164;BME280;64897;50.816;4.422;2023-05-03T13:49:08;101585.88;;;16.58;36.41
76164;BME280;64897;50.816;4.422;2023-05-03T13:51:56;101573.38;;;16.49;35.52
76164;BME280;64897;50.816;4.422;2023-05-03T13:54:43;101579.72;;;16.69;35.14
76164;BME280;64897;50.816;4.422;2023-05-03T13:57:30;101565.31;;;16.84;35.26
76164;BME280;64897;50.816;4.422;2023-05-03T14:00:18;101559.75;;;16.98;34.85
76164;BME280;64897;50.816;4.422;2023-05-03T14:03:05;101560.28;;;16.81;34.81
76164;BME280;64897;50.816;4.422;2023-05-03T14:05:52;101558.41;;;16.61;35.37
76164;BME280;64897;50.816;4.422;2023-05-03T14:08:41;101547.09;;;16.47;35.12
76164;BME280;64897;50.816;4.422;2023-05-03T14:11:29;101553.19;;;16.70;34.60
76164;BME280;64897;50.816;4.422;2023-05-03T14:14:16;101543.91;;;16.55;35.26
76164;BME280;64897;50.816;4.422;2023-05-03T14:17:03;101545.41;;;16.69;35.29
76164;BME280;64897;50.816;4.422;2023-05-03T14:19:50;101542.81;;;16.46;35.25
76164;BME280;64897;50.816;4.422;2023-05-03T14:22:38;101534.41;;;16.52;35.76
76164;BME280;64897;50.816;4.422;2023-05-03T14:25:27;101540.28;;;16.56;35.94
76164;BME280;64897;50.816;4.422;2023-05-03T14:28:14;101528.38;;;16.62;34.33
76164;BME280;64897;50.816;4.422;2023-05-03T14:31:01;101536.78;;;16.67;34.45
76164;BME280;64897;50.816;4.422;2023-05-03T14:33:49;101534.75;;;16.59;34.51
76164;BME280;64897;50.816;4.422;2023-05-03T14:36:37;101523.59;;;16.67;34.60
76164;BME280;64897;50.816;4.422;2023-05-03T14:39:28;101515.44;;;16.70;33.78
76164;BME280;64897;50.816;4.422;2023-05-03T14:42:16;101511.81;;;16.71;34.04
76164;BME280;64897;50.816;4.422;2023-05-03T14:45:04;101514.13;;;16.64;34.51
76164;BME280;64897;50.816;4.422;2023-05-03T14:47:52;101503.31;;;16.56;34.68
76164;BME280;64897;50.816;4.422;2023-05-03T14:50:39;101497.00;;;16.36;34.39
76164;BME280;64897;50.816;4.422;2023-05-03T14:53:26;101500.59;;;16.46;34.68
76164;BME280;64897;50.816;4.422;2023-05-03T14:56:14;101497.94;;;16.46;34.78
76164;BME280;64897;50.816;4.422;2023-05-03T14:59:02;101484.16;;;16.54;34.33
76164;BME280;64897;50.816;4.422;2023-05-03T15:01:51;101482.91;;;16.69;34.76
76164;BME280;64897;50.816;4.422;2023-05-03T15:04:38;101469.50;;;16.61;35.31
76164;BME280;64897;50.816;4.422;2023-05-03T15:07:26;101474.66;;;16.63;34.65
76164;BME280;64897;50.816;4.422;2023-05-03T15:10:13;101468.53;;;16.51;34.52
76164;BME280;64897;50.816;4.422;2023-05-03T15:13:00;101473.69;;;16.52;34.58
76164;BME280;64897;50.816;4.422;2023-05-03T15:15:48;101472.94;;;16.73;34.58
76164;BME280;64897;50.816;4.422;2023-05-03T15:18:36;101469.31;;;16.74;34.48
76164;BME280;64897;50.816;4.422;2023-05-03T15:21:23;101466.56;;;16.75;35.27
76164;BME280;64897;50.816;4.422;2023-05-03T15:24:10;101462.69;;;16.79;36.00
76164;BME280;64897;50.816;4.422;2023-05-03T15:26:59;101452.78;;;16.72;34.14
76164;BME280;64897;50.816;4.422;2023-05-03T15:29:47;101456.59;;;16.79;33.89
76164;BME280;64897;50.816;4.422;2023-05-03T15:32:35;101464.53;;;16.79;33.26
76164;BME280;64897;50.816;4.422;2023-05-03T15:35:22;101463.28;;;16.83;32.95
76164;BME280;64897;50.816;4.422;2023-05-03T15:38:09;101462.25;;;16.74;33.65
76164;BME280;64897;50.816;4.422;2023-05-03T15:40:56;101454.00;;;16.68;34.26
76164;BME280;64897;50.816;4.422;2023-05-03T15:43:44;101451.25;;;16.69;33.77
76164;BME280;64897;50.816;4.422;2023-05-03T15:46:31;101455.56;;;16.59;34.37